Time;durP1;ratioP1;P1;durP2;ratioP2;P2;SDS_P1;SDS_P2;PMS_P1;PMS_P2;Temp;Humidity;BMP_temperature;BMP_pressure;BME280_temperature;BME280_humidity;BME280_pressure;Samples;Min_cycle;Max_cycle;Signal;HPM_P1;HPM_P2
2022/03/23 00:00:46;;;;;;;18.13;12.82;;;;;;;;;;4938560;29;20224;-75
2022/03/23 00:03:13;;;;;;;19.45;13.02;;;;;;;;;;4939176;29;20191;-76
2022/03/23 00:05:41;;;;;;;19.65;13.57;;;;;;;;;;4939063;29;20213;-77
2022/03/23 00:08:07;;;;;;;17.80;12.30;;;;;;;;;;4937865;29;20174;-79
2022/03/23 00:10:34;;;;;;;21.65;13.30;;;;;;;;;;4938486;29;20190;-77
2022/03/23 00:13:00;;;;;;;24.85;12.35;;;;;;;;;;4938719;29;20181;-77
2022/03/23 00:15:27;;;;;;;18.02;12.95;;;;;;;;;;4937535;29;20179;-76
2022/03/23 00:17:54;;;;;;;19.10;13.07;;;;;;;;;;4938798;29;20264;-77
2022/03/23 00:20:20;;;;;;;19.55;13.02;;;;;;;;;;4938327;29;20186;-79
2022/03/23 00:22:46;;;;;;;23.08;13.45;;;;;;;;;;4938412;29;20248;-79
2022/03/23 00:25:12;;;;;;;22.35;13.15;;;;;;;;;;4937261;29;20221;-78
2022/03/23 00:27:39;;;;;;;21.27;12.98;;;;;;;;;;4937497;29;20559;-79
2022/03/23 00:30:05;;;;;;;17.38;12.70;;;;;;;;;;4938698;29;20663;-80
2022/03/23 00:32:31;;;;;;;21.58;14.02;;;;;;;;;;4938280;29;20213;-78
2022/03/23 00:34:57;;;;;;;18.40;12.20;;;;;;;;;;4937387;29;20268;-77
2022/03/23 00:37:23;;;;;;;26.40;15.02;;;;;;;;;;4937113;29;20189;-79
2022/03/23 00:39:50;;;;;;;19.00;14.18;;;;;;;;;;4938684;29;20186;-77
2022/03/23 00:42:16;;;;;;;16.50;12.50;;;;;;;;;;4936946;29;20217;-81
2022/03/23 00:44:42;;;;;;;20.73;14.07;;;;;;;;;;4938242;29;20204;-80
2022/03/23 00:47:09;;;;;;;28.15;14.02;;;;;;;;;;4938362;29;20545;-80
2022/03/23 00:49:35;;;;;;;19.52;14.13;;;;;;;;;;4937233;29;20181;-76
2022/03/23 00:52:05;;;;;;;17.15;12.68;;;;;;;;;;4937961;29;20233;-78
2022/03/23 00:54:34;;;;;;;18.65;12.75;;;;;;;;;;4921824;29;20239;-79
2022/03/23 00:57:01;;;;;;;25.02;14.55;;;;;;;;;;4938111;29;20258;-77
2022/03/23 00:59:27;;;;;;;23.60;14.70;;;;;;;;;;4936651;29;20706;-79
2022/03/23 01:01:53;;;;;;;19.85;13.48;;;;;;;;;;4937718;29;20578;-77
2022/03/23 01:04:20;;;;;;;21.83;13.20;;;;;;;;;;4938023;29;20200;-79
2022/03/23 01:06:46;;;;;;;19.58;13.52;;;;;;;;;;4937884;29;20174;-78
2022/03/23 01:09:12;;;;;;;20.20;13.45;;;;;;;;;;4937674;29;20181;-79
2022/03/23 01:11:39;;;;;;;17.85;13.52;;;;;;;;;;4937510;29;20201;-79
2022/03/23 01:14:05;;;;;;;18.48;12.75;;;;;;;;;;4937967;29;20555;-79
2022/03/23 01:16:31;;;;;;;25.98;15.63;;;;;;;;;;4937767;29;20533;-78
2022/03/23 01:18:57;;;;;;;21.77;15.15;;;;;;;;;;4936541;29;20220;-79
2022/03/23 01:21:23;;;;;;;22.93;14.03;;;;;;;;;;4935840;29;20224;-80
2022/03/23 01:23:50;;;;;;;21.65;14.95;;;;;;;;;;4936255;29;20455;-81
2022/03/23 01:26:16;;;;;;;21.10;15.20;;;;;;;;;;4937654;29;20181;-78
2022/03/23 01:28:42;;;;;;;22.70;13.82;;;;;;;;;;4936393;29;20238;-79
2022/03/23 01:31:08;;;;;;;23.57;14.90;;;;;;;;;;4937296;29;20265;-79
2022/03/23 01:33:34;;;;;;;22.83;15.10;;;;;;;;;;4937274;29;20416;-78
2022/03/23 01:36:00;;;;;;;21.50;16.07;;;;;;;;;;4937537;29;20197;-81
2022/03/23 01:38:26;;;;;;;18.83;14.10;;;;;;;;;;4937516;29;20425;-78
2022/03/23 01:40:52;;;;;;;28.27;15.20;;;;;;;;;;4937050;29;20446;-78
2022/03/23 01:43:18;;;;;;;28.07;15.60;;;;;;;;;;4936145;29;20524;-80
2022/03/23 01:45:44;;;;;;;24.08;16.13;;;;;;;;;;4937021;29;20476;-75
2022/03/23 01:48:10;;;;;;;18.75;13.35;;;;;;;;;;4937027;29;20254;-79
2022/03/23 01:50:36;;;;;;;20.90;14.57;;;;;;;;;;4936325;29;20184;-80
2022/03/23 01:53:03;;;;;;;23.73;15.93;;;;;;;;;;4937234;29;20749;-80
2022/03/23 01:55:29;;;;;;;22.95;14.15;;;;;;;;;;4937000;29;20189;-80
2022/03/23 01:57:55;;;;;;;24.77;15.48;;;;;;;;;;4935734;29;20192;-79
2022/03/23 02:00:21;;;;;;;20.90;14.65;;;;;;;;;;4919832;29;20566;-78
2022/03/23 02:02:47;;;;;;;20.63;14.70;;;;;;;;;;4937095;29;20600;-79
2022/03/23 02:05:14;;;;;;;21.92;15.25;;;;;;;;;;4936953;29;20198;-81
2022/03/23 02:07:40;;;;;;;20.17;14.40;;;;;;;;;;4935721;29;20316;-81
2022/03/23 02:10:06;;;;;;;24.50;15.63;;;;;;;;;;4935515;29;20674;-78
2022/03/23 02:12:32;;;;;;;23.65;15.93;;;;;;;;;;4920110;29;20463;-81
2022/03/23 02:15:00;;;;;;;21.50;14.85;;;;;;;;;;4936824;29;20546;-81
2022/03/23 02:17:26;;;;;;;22.52;16.05;;;;;;;;;;4936705;29;20184;-79
2022/03/23 02:19:52;;;;;;;20.30;14.75;;;;;;;;;;4936446;29;20184;-79
2022/03/23 02:22:18;;;;;;;19.88;13.80;;;;;;;;;;4936075;29;20305;-80
2022/03/23 02:24:47;;;;;;;24.45;14.80;;;;;;;;;;4935250;29;20225;-79
2022/03/23 02:27:14;;;;;;;20.52;13.70;;;;;;;;;;4936615;29;20194;-79
2022/03/23 02:29:40;;;;;;;23.73;16.05;;;;;;;;;;4935409;29;20182;-78
2022/03/23 02:32:06;;;;;;;27.58;16.98;;;;;;;;;;4936530;29;20621;-76
2022/03/23 02:34:32;;;;;;;23.10;14.90;;;;;;;;;;4920312;29;20188;-77
2022/03/23 02:36:59;;;;;;;19.80;14.03;;;;;;;;;;4938663;29;20215;-77
2022/03/23 02:39:28;;;;;;;22.23;14.93;;;;;;;;;;4936618;29;20460;-80
2022/03/23 02:41:56;;;;;;;23.85;15.38;;;;;;;;;;4934739;29;20204;-76
2022/03/23 02:44:22;;;;;;;19.90;15.00;;;;;;;;;;4936441;29;20204;-76
2022/03/23 02:46:48;;;;;;;24.65;17.83;;;;;;;;;;4936212;29;20176;-77
2022/03/23 02:49:20;;;;;;;25.80;15.48;;;;;;;;;;4936215;29;20174;-77
2022/03/23 02:51:46;;;;;;;25.13;15.07;;;;;;;;;;4936103;29;20566;-76
2022/03/23 03:02:46;;;;;;;19.52;14.25;;;;;;;;;;4935422;29;20271;-79
2022/03/23 03:05:12;;;;;;;23.88;16.05;;;;;;;;;;4934683;29;20216;-77
2022/03/23 03:10:24;;;;;;;24.42;14.77;;;;;;;;;;4935737;29;20229;-79
2022/03/23 03:12:51;;;;;;;25.48;15.43;;;;;;;;;;4934695;29;20192;-76
2022/03/23 03:15:19;;;;;;;25.65;14.57;;;;;;;;;;4936036;29;20195;-77
2022/03/23 03:17:46;;;;;;;24.77;15.05;;;;;;;;;;4934844;29;20194;-80
2022/03/23 03:20:14;;;;;;;24.63;15.88;;;;;;;;;;4935683;29;20180;-78
2022/03/23 03:22:40;;;;;;;22.30;15.27;;;;;;;;;;4935574;29;20549;-78
2022/03/23 03:25:06;;;;;;;24.58;14.73;;;;;;;;;;4936036;29;20205;-77
2022/03/23 03:27:35;;;;;;;22.17;14.98;;;;;;;;;;4934586;29;20244;-79
2022/03/23 03:30:03;;;;;;;23.02;16.05;;;;;;;;;;4934533;29;20187;-77
2022/03/23 03:35:32;;;;;;;23.20;14.75;;;;;;;;;;4935838;29;20237;-78
2022/03/23 03:37:58;;;;;;;26.27;15.77;;;;;;;;;;4936081;29;20627;-77
2022/03/23 03:40:24;;;;;;;21.02;14.27;;;;;;;;;;4935462;29;20184;-77
2022/03/23 03:42:50;;;;;;;23.80;14.60;;;;;;;;;;4935884;29;20698;-80
2022/03/23 03:45:16;;;;;;;24.73;15.97;;;;;;;;;;4934441;29;20312;-80
2022/03/23 03:47:42;;;;;;;26.38;15.30;;;;;;;;;;4934306;29;20411;-79
2022/03/23 03:50:09;;;;;;;23.80;15.30;;;;;;;;;;4934543;29;20210;-80
2022/03/23 03:52:34;;;;;;;24.55;16.95;;;;;;;;;;4935551;29;20448;-79
2022/03/23 03:55:00;;;;;;;24.20;14.30;;;;;;;;;;4918687;29;20228;-78
2022/03/23 03:57:26;;;;;;;21.50;14.80;;;;;;;;;;4935392;29;20424;-78
2022/03/23 03:59:52;;;;;;;22.10;14.17;;;;;;;;;;4934501;29;20420;-80
2022/03/23 04:02:21;;;;;;;23.35;15.45;;;;;;;;;;4935205;29;20489;-78
2022/03/23 04:04:47;;;;;;;26.80;15.63;;;;;;;;;;4934117;29;20212;-76
2022/03/23 04:07:13;;;;;;;19.90;14.70;;;;;;;;;;4934468;29;20604;-79
2022/03/23 04:09:39;;;;;;;24.55;15.82;;;;;;;;;;4934294;29;20424;-77
2022/03/23 04:12:05;;;;;;;21.17;14.80;;;;;;;;;;4934488;29;20197;-77
2022/03/23 04:14:32;;;;;;;24.45;15.95;;;;;;;;;;4938893;29;20212;-79
2022/03/23 04:16:58;;;;;;;27.85;16.77;;;;;;;;;;4938775;29;20186;-76
2022/03/23 04:19:24;;;;;;;24.60;14.83;;;;;;;;;;4938885;29;20195;-79
2022/03/23 04:21:50;;;;;;;22.90;14.85;;;;;;;;;;4938281;29;20595;-76
2022/03/23 04:24:16;;;;;;;29.23;15.90;;;;;;;;;;4938554;29;20207;-77
2022/03/23 04:26:44;;;;;;;24.17;16.63;;;;;;;;;;4938647;29;20445;-78
2022/03/23 04:29:10;;;;;;;25.23;15.57;;;;;;;;;;4938437;29;20217;-78
2022/03/23 04:31:36;;;;;;;23.00;15.90;;;;;;;;;;4938403;29;20202;-76
2022/03/23 04:34:02;;;;;;;22.63;13.73;;;;;;;;;;4938472;29;20187;-76
2022/03/23 04:36:28;;;;;;;24.52;16.50;;;;;;;;;;4937223;29;20432;-79
2022/03/23 04:38:54;;;;;;;21.67;15.40;;;;;;;;;;4937153;29;20206;-78
2022/03/23 04:41:20;;;;;;;24.38;17.35;;;;;;;;;;4936822;29;20219;-78
2022/03/23 04:43:46;;;;;;;20.42;14.52;;;;;;;;;;4936964;29;20184;-79
2022/03/23 04:46:13;;;;;;;29.60;16.77;;;;;;;;;;4938542;29;20270;-79
2022/03/23 04:48:39;;;;;;;23.92;16.42;;;;;;;;;;4938568;29;20413;-76
2022/03/23 04:51:05;;;;;;;21.70;14.43;;;;;;;;;;4937865;29;20575;-79
2022/03/23 04:53:31;;;;;;;23.60;14.83;;;;;;;;;;4938444;29;20417;-79
2022/03/23 04:55:57;;;;;;;20.67;14.60;;;;;;;;;;4938338;29;20428;-77
2022/03/23 04:58:25;;;;;;;26.88;15.70;;;;;;;;;;4936992;29;20186;-78
2022/03/23 05:00:50;;;;;;;21.55;14.82;;;;;;;;;;4937655;29;20207;-75
2022/03/23 05:03:16;;;;;;;24.40;15.10;;;;;;;;;;4936827;29;20186;-78
2022/03/23 05:05:44;;;;;;;20.60;14.43;;;;;;;;;;4936690;29;20474;-79
2022/03/23 05:08:10;;;;;;;21.45;14.23;;;;;;;;;;4938066;29;20177;-78
2022/03/23 05:10:36;;;;;;;22.38;13.68;;;;;;;;;;4937314;29;20631;-77
2022/03/23 05:13:01;;;;;;;26.43;16.20;;;;;;;;;;4937860;29;20184;-76
2022/03/23 05:15:27;;;;;;;23.67;15.13;;;;;;;;;;4936410;29;20433;-81
2022/03/23 05:17:53;;;;;;;23.23;15.98;;;;;;;;;;4920888;29;20424;-78
2022/03/23 05:20:20;;;;;;;20.10;14.70;;;;;;;;;;4937399;29;20267;-78
2022/03/23 05:22:46;;;;;;;22.20;14.40;;;;;;;;;;4936205;29;20444;-76
2022/03/23 05:25:13;;;;;;;23.17;14.43;;;;;;;;;;4936484;29;20236;-77
2022/03/23 05:27:39;;;;;;;22.98;15.60;;;;;;;;;;4937463;29;20263;-78
2022/03/23 05:30:08;;;;;;;18.67;13.93;;;;;;;;;;4936206;29;20188;-76
2022/03/23 05:32:34;;;;;;;24.70;15.45;;;;;;;;;;4937467;29;20189;-79
2022/03/23 05:35:01;;;;;;;22.45;13.65;;;;;;;;;;4937355;29;20213;-80
2022/03/23 05:37:27;;;;;;;25.25;13.65;;;;;;;;;;4937266;29;20183;-77
2022/03/23 05:39:53;;;;;;;26.17;16.35;;;;;;;;;;4937516;29;20246;-75
2022/03/23 05:42:19;;;;;;;24.05;14.18;;;;;;;;;;4937176;29;20564;-79
2022/03/23 05:44:45;;;;;;;24.27;16.05;;;;;;;;;;4920585;29;20701;-77
2022/03/23 05:47:11;;;;;;;29.42;16.08;;;;;;;;;;4937010;29;20207;-80
2022/03/23 05:49:37;;;;;;;22.17;15.40;;;;;;;;;;4937093;29;20223;-79
2022/03/23 05:52:04;;;;;;;28.88;16.55;;;;;;;;;;4936825;29;20480;-79
2022/03/23 05:54:30;;;;;;;26.98;15.95;;;;;;;;;;4937068;29;20232;-78
2022/03/23 05:56:56;;;;;;;23.30;14.45;;;;;;;;;;4937139;29;20173;-77
2022/03/23 05:59:22;;;;;;;27.00;15.63;;;;;;;;;;4935708;29;20240;-80
2022/03/23 06:01:48;;;;;;;25.05;15.20;;;;;;;;;;4935134;29;20231;-80
2022/03/23 06:04:14;;;;;;;25.65;16.33;;;;;;;;;;4936961;29;20768;-78
2022/03/23 06:06:41;;;;;;;29.30;17.42;;;;;;;;;;4936892;29;20217;-78
2022/03/23 06:09:07;;;;;;;33.47;16.50;;;;;;;;;;4936708;29;20177;-78
2022/03/23 06:11:33;;;;;;;26.05;15.48;;;;;;;;;;4936324;29;20200;-76
2022/03/23 06:13:59;;;;;;;25.05;14.90;;;;;;;;;;4936671;29;20177;-77
2022/03/23 06:16:25;;;;;;;22.10;13.97;;;;;;;;;;4935464;29;20763;-76
2022/03/23 06:18:51;;;;;;;23.60;17.03;;;;;;;;;;4935312;29;20916;-76
2022/03/23 06:21:17;;;;;;;21.30;15.10;;;;;;;;;;4936147;29;20802;-77
2022/03/23 06:23:43;;;;;;;25.42;16.63;;;;;;;;;;4936158;29;20448;-79
2022/03/23 06:26:09;;;;;;;23.48;15.77;;;;;;;;;;4936219;29;20212;-76
2022/03/23 06:28:35;;;;;;;25.13;15.63;;;;;;;;;;4936206;29;20676;-78
2022/03/23 06:31:01;;;;;;;31.37;16.20;;;;;;;;;;4935780;29;20444;-76
2022/03/23 06:33:27;;;;;;;27.40;16.17;;;;;;;;;;4936198;29;20421;-79
2022/03/23 06:35:53;;;;;;;24.95;15.95;;;;;;;;;;4934612;29;20224;-75
2022/03/23 06:38:19;;;;;;;21.57;16.33;;;;;;;;;;4936332;29;20191;-76
2022/03/23 06:40:45;;;;;;;24.17;17.37;;;;;;;;;;4934716;29;20442;-78
2022/03/23 06:43:11;;;;;;;24.55;16.67;;;;;;;;;;4936204;29;20485;-76
2022/03/23 06:45:40;;;;;;;29.63;16.52;;;;;;;;;;4936252;29;20208;-78
2022/03/23 06:48:06;;;;;;;25.40;16.60;;;;;;;;;;4936302;29;20542;-77
2022/03/23 06:50:32;;;;;;;28.23;17.10;;;;;;;;;;4934543;29;20193;-79
2022/03/23 06:52:58;;;;;;;26.95;15.82;;;;;;;;;;4936124;29;20168;-75
2022/03/23 06:55:24;;;;;;;26.17;17.00;;;;;;;;;;4936129;29;20185;-77
2022/03/23 06:57:50;;;;;;;27.00;17.67;;;;;;;;;;4935894;29;20661;-77
2022/03/23 07:00:16;;;;;;;26.23;15.90;;;;;;;;;;4935869;29;20438;-78
2022/03/23 07:02:43;;;;;;;27.73;18.48;;;;;;;;;;4934742;29;20287;-79
2022/03/23 07:05:10;;;;;;;25.38;16.75;;;;;;;;;;4935880;29;20604;-79
2022/03/23 07:07:36;;;;;;;25.77;17.10;;;;;;;;;;4935922;29;20255;-78
2022/03/23 07:10:03;;;;;;;26.45;17.27;;;;;;;;;;4935667;29;20184;-78
2022/03/23 07:12:29;;;;;;;25.83;15.82;;;;;;;;;;4937532;29;20480;-78
2022/03/23 07:14:55;;;;;;;26.63;15.47;;;;;;;;;;4936428;29;20224;-77
2022/03/23 07:17:21;;;;;;;26.47;16.57;;;;;;;;;;4935893;29;20420;-77
2022/03/23 07:19:47;;;;;;;27.57;16.57;;;;;;;;;;4935919;29;20464;-77
2022/03/23 07:22:15;;;;;;;25.77;15.73;;;;;;;;;;4935395;29;20436;-78
2022/03/23 07:24:41;;;;;;;24.63;15.52;;;;;;;;;;4935657;29;20677;-78
2022/03/23 07:27:08;;;;;;;26.58;16.67;;;;;;;;;;4934506;29;20225;-79
2022/03/23 07:29:35;;;;;;;27.65;18.00;;;;;;;;;;4935632;29;20636;-79
2022/03/23 07:32:01;;;;;;;21.95;14.48;;;;;;;;;;4934087;29;20206;-77
2022/03/23 07:34:27;;;;;;;25.70;15.93;;;;;;;;;;4935521;29;20194;-78
2022/03/23 07:36:53;;;;;;;26.85;16.50;;;;;;;;;;4935669;29;20195;-78
2022/03/23 07:39:25;;;;;;;27.60;16.58;;;;;;;;;;4935713;29;20187;-76
2022/03/23 07:41:53;;;;;;;22.85;14.65;;;;;;;;;;4935512;29;20190;-77
2022/03/23 07:44:21;;;;;;;26.02;16.20;;;;;;;;;;4935791;29;20732;-76
2022/03/23 07:46:47;;;;;;;20.50;15.07;;;;;;;;;;4936023;29;20641;-77
2022/03/23 07:49:14;;;;;;;23.42;15.70;;;;;;;;;;4938019;29;20251;-78
2022/03/23 07:51:39;;;;;;;20.65;15.00;;;;;;;;;;4939097;29;20209;-78
2022/03/23 07:54:06;;;;;;;22.93;15.20;;;;;;;;;;4939420;29;20182;-75
2022/03/23 07:56:33;;;;;;;29.60;17.45;;;;;;;;;;4939180;29;20405;-76
2022/03/23 07:58:59;;;;;;;21.35;15.30;;;;;;;;;;4922233;29;20180;-75
2022/03/23 08:01:25;;;;;;;21.45;16.50;;;;;;;;;;4937418;29;20207;-75
2022/03/23 08:03:51;;;;;;;25.85;15.60;;;;;;;;;;4939001;29;20188;-75
2022/03/23 08:06:17;;;;;;;26.48;15.98;;;;;;;;;;4939041;29;20186;-75
2022/03/23 08:08:43;;;;;;;24.30;16.40;;;;;;;;;;4939153;29;20644;-77
2022/03/23 08:11:11;;;;;;;25.20;15.70;;;;;;;;;;4938685;29;20243;-75
2022/03/23 08:13:37;;;;;;;24.10;16.10;;;;;;;;;;4938808;29;20178;-79
2022/03/23 08:16:04;;;;;;;24.83;17.15;;;;;;;;;;4938833;29;20186;-77
2022/03/23 08:18:32;;;;;;;28.67;16.92;;;;;;;;;;4938973;29;20191;-77
2022/03/23 08:20:58;;;;;;;23.77;17.52;;;;;;;;;;4938449;29;20202;-76
2022/03/23 08:23:25;;;;;;;30.63;17.88;;;;;;;;;;4937463;29;20660;-76
2022/03/23 08:25:51;;;;;;;28.45;17.08;;;;;;;;;;4938732;29;20236;-78
2022/03/23 08:28:17;;;;;;;25.65;15.65;;;;;;;;;;4937294;29;20182;-79
2022/03/23 08:30:44;;;;;;;22.92;16.30;;;;;;;;;;4938059;29;20607;-77
2022/03/23 08:33:10;;;;;;;26.40;16.35;;;;;;;;;;4938575;29;20230;-77
2022/03/23 08:35:36;;;;;;;29.13;15.80;;;;;;;;;;4938520;29;20182;-76
2022/03/23 08:38:03;;;;;;;26.83;16.67;;;;;;;;;;4938445;29;20266;-75
2022/03/23 08:40:29;;;;;;;22.08;15.98;;;;;;;;;;4938019;29;20185;-76
2022/03/23 08:42:57;;;;;;;26.40;15.68;;;;;;;;;;4938280;29;20184;-75
2022/03/23 08:45:23;;;;;;;23.05;16.73;;;;;;;;;;4938339;29;20210;-76
2022/03/23 08:47:49;;;;;;;23.83;15.90;;;;;;;;;;4938188;29;20589;-75
2022/03/23 08:50:15;;;;;;;26.63;17.30;;;;;;;;;;4938084;29;20391;-76
2022/03/23 08:52:41;;;;;;;21.97;15.53;;;;;;;;;;4938044;29;20438;-74
2022/03/23 08:55:09;;;;;;;22.33;15.07;;;;;;;;;;4938113;29;20418;-78
2022/03/23 08:57:36;;;;;;;22.03;15.07;;;;;;;;;;4936577;29;20428;-76
2022/03/23 09:00:03;;;;;;;19.37;14.57;;;;;;;;;;4938181;29;20430;-78
2022/03/23 09:02:29;;;;;;;25.93;16.43;;;;;;;;;;4937766;29;20412;-76
2022/03/23 09:04:55;;;;;;;24.60;16.40;;;;;;;;;;4937835;29;20469;-75
2022/03/23 09:07:21;;;;;;;23.27;17.13;;;;;;;;;;4938005;29;20480;-77
2022/03/23 09:09:47;;;;;;;22.77;16.83;;;;;;;;;;4938011;29;20385;-78
2022/03/23 09:12:13;;;;;;;20.13;15.70;;;;;;;;;;4937370;29;20450;-76
2022/03/23 09:14:39;;;;;;;23.20;16.30;;;;;;;;;;4936689;29;20794;-77
2022/03/23 09:17:05;;;;;;;21.70;16.50;;;;;;;;;;4937618;29;20513;-76
2022/03/23 09:19:32;;;;;;;24.43;16.33;;;;;;;;;;4937728;29;20422;-75
2022/03/23 09:21:59;;;;;;;24.17;17.03;;;;;;;;;;4937340;29;20412;-76
2022/03/23 09:24:25;;;;;;;22.60;16.73;;;;;;;;;;4937346;29;20472;-78
2022/03/23 09:26:53;;;;;;;24.13;17.00;;;;;;;;;;4936474;29;20422;-77
2022/03/23 09:29:18;;;;;;;21.60;16.67;;;;;;;;;;4937589;29;20423;-77
2022/03/23 09:31:44;;;;;;;22.17;16.10;;;;;;;;;;4937134;29;20437;-79
2022/03/23 09:34:10;;;;;;;22.13;16.70;;;;;;;;;;4937252;29;20445;-77
2022/03/23 09:39:21;;;;;;;17.73;14.17;;;;;;;;;;4937318;29;20456;-77
2022/03/23 09:41:47;;;;;;;23.07;15.50;;;;;;;;;;4936965;29;20438;-79
2022/03/23 09:44:13;;;;;;;22.57;16.37;;;;;;;;;;4937215;29;20811;-76
2022/03/23 09:46:39;;;;;;;23.90;15.00;;;;;;;;;;4937055;29;20497;-76
2022/03/23 09:49:06;;;;;;;20.20;17.03;;;;;;;;;;4937235;29;20849;-76
2022/03/23 09:51:33;;;;;;;20.67;16.10;;;;;;;;;;4936601;29;20430;-78
2022/03/23 09:53:59;;;;;;;18.23;15.13;;;;;;;;;;4937233;29;20868;-77
2022/03/23 09:56:25;;;;;;;24.13;17.03;;;;;;;;;;4937196;29;20411;-75
2022/03/23 09:58:52;;;;;;;24.87;17.43;;;;;;;;;;4937130;29;20794;-75
2022/03/23 10:01:30;;;;;;;23.80;17.03;;;;;;;;;;4936501;29;20465;-77
2022/03/23 10:04:28;;;;;;;18.93;15.80;;;;;;;;;;4936964;29;20488;-75
2022/03/23 10:07:14;;;;;;;20.50;15.83;;;;;;;;;;4936829;29;20441;-76
2022/03/23 10:09:40;;;;;;;20.00;16.07;;;;;;;;;;4935010;29;20438;-77
2022/03/23 10:12:25;;;;;;;18.87;16.40;;;;;;;;;;4936340;29;20442;-75
2022/03/23 10:15:09;;;;;;;20.20;16.80;;;;;;;;;;4936807;29;20418;-75
2022/03/23 10:17:54;;;;;;;20.90;17.33;;;;;;;;;;4936580;29;20422;-78
2022/03/23 10:20:20;;;;;;;21.87;16.57;;;;;;;;;;4900917;29;20428;-75
2022/03/23 10:22:51;;;;;;;20.20;16.47;;;;;;;;;;4901161;29;20487;-78
2022/03/23 10:25:18;;;;;;;23.53;17.60;;;;;;;;;;4898640;29;20846;-75
2022/03/23 10:27:45;;;;;;;23.80;17.37;;;;;;;;;;4898616;29;20502;-78
2022/03/23 10:30:11;;;;;;;22.53;15.27;;;;;;;;;;4898405;29;20408;-75
2022/03/23 10:32:38;;;;;;;22.27;15.77;;;;;;;;;;4898428;29;20436;-78
2022/03/23 10:35:04;;;;;;;19.17;16.30;;;;;;;;;;4898486;29;20415;-76
2022/03/23 10:37:34;;;;;;;23.60;16.47;;;;;;;;;;4898434;29;20906;-76
2022/03/23 10:40:01;;;;;;;23.03;17.60;;;;;;;;;;4900613;29;20416;-77
2022/03/23 10:42:29;;;;;;;22.63;16.60;;;;;;;;;;4911448;29;20446;-77
2022/03/23 10:45:16;;;;;;;23.00;16.97;;;;;;;;;;4907959;29;20534;-76
2022/03/23 10:47:43;;;;;;;20.53;16.60;;;;;;;;;;4908307;29;20411;-75
2022/03/23 10:50:15;;;;;;;24.33;15.60;;;;;;;;;;4913856;29;20423;-75
2022/03/23 10:52:56;;;;;;;22.60;16.17;;;;;;;;;;4931669;29;21023;-76
2022/03/23 10:55:22;;;;;;;22.60;15.20;;;;;;;;;;4931783;29;20431;-75
2022/03/23 10:57:51;;;;;;;20.53;14.47;;;;;;;;;;4916935;29;20430;-77
2022/03/23 11:00:45;;;;;;;18.37;16.47;;;;;;;;;;4916462;29;20419;-77
2022/03/23 11:03:11;;;;;;;20.30;18.00;;;;;;;;;;4917041;29;20415;-76
2022/03/23 11:05:44;;;;;;;21.80;18.13;;;;;;;;;;4916905;29;20791;-77
2022/03/23 11:08:12;;;;;;;26.13;16.30;;;;;;;;;;4916782;29;20475;-75
2022/03/23 11:16:10;;;;;;;26.47;16.53;;;;;;;;;;4917015;29;20409;-77
2022/03/23 11:18:36;;;;;;;19.80;16.67;;;;;;;;;;4917015;29;20494;-74
2022/03/23 11:21:02;;;;;;;21.43;16.03;;;;;;;;;;4916579;29;20441;-75
2022/03/23 11:23:30;;;;;;;26.03;18.37;;;;;;;;;;4920003;29;20502;-73
2022/03/23 11:26:04;;;;;;;27.30;17.83;;;;;;;;;;4920645;29;20465;-76
2022/03/23 11:28:33;;;;;;;23.17;17.83;;;;;;;;;;4920720;29;20406;-75
2022/03/23 11:31:02;;;;;;;21.50;16.90;;;;;;;;;;4920458;29;20596;-76
2022/03/23 11:33:28;;;;;;;20.30;16.50;;;;;;;;;;4920414;29;20945;-76
2022/03/23 11:35:54;;;;;;;18.70;16.20;;;;;;;;;;4920246;29;20487;-76
2022/03/23 11:38:22;;;;;;;19.30;15.93;;;;;;;;;;4920427;29;20509;-75
2022/03/23 11:40:48;;;;;;;19.40;16.30;;;;;;;;;;4920121;29;20435;-76
2022/03/23 11:43:17;;;;;;;18.90;15.37;;;;;;;;;;4920388;29;20445;-76
2022/03/23 11:45:44;;;;;;;21.53;15.87;;;;;;;;;;4920219;29;20466;-75
2022/03/23 11:48:22;;;;;;;22.73;16.50;;;;;;;;;;4920312;29;20411;-76
2022/03/23 11:50:48;;;;;;;26.03;16.10;;;;;;;;;;4934588;29;20449;-74
2022/03/23 11:53:30;;;;;;;24.23;14.37;;;;;;;;;;4920206;29;20419;-76
2022/03/23 11:55:56;;;;;;;20.53;16.00;;;;;;;;;;4920292;29;20407;-76
2022/03/23 11:58:32;;;;;;;21.57;15.97;;;;;;;;;;4934667;29;20423;-76
2022/03/23 12:01:09;;;;;;;18.67;15.33;;;;;;;;;;4934533;29;20430;-78
2022/03/23 12:03:41;;;;;;;18.73;15.27;;;;;;;;;;4922582;29;20406;-77
2022/03/23 12:06:11;;;;;;;17.10;15.27;;;;;;;;;;4921783;29;20469;-78
2022/03/23 12:08:50;;;;;;;20.50;16.30;;;;;;;;;;4920332;29;20571;-78
2022/03/23 12:11:35;;;;;;;28.30;17.67;;;;;;;;;;4919531;29;20426;-77
2022/03/23 12:14:03;;;;;;;23.00;16.87;;;;;;;;;;4919930;29;20406;-79
2022/03/23 12:16:47;;;;;;;21.47;16.30;;;;;;;;;;4919971;29;20419;-77
2022/03/23 12:19:19;;;;;;;18.93;14.57;;;;;;;;;;4919817;29;20469;-77
2022/03/23 12:22:05;;;;;;;16.47;14.27;;;;;;;;;;4919590;29;20531;-75
2022/03/23 12:24:35;;;;;;;17.60;14.37;;;;;;;;;;4918762;29;20850;-75
2022/03/23 12:27:07;;;;;;;21.60;15.90;;;;;;;;;;4919830;29;20411;-76
2022/03/23 12:29:36;;;;;;;21.30;15.40;;;;;;;;;;4919953;29;20414;-76
2022/03/23 12:32:05;;;;;;;20.40;15.13;;;;;;;;;;4919219;29;20764;-76
2022/03/23 12:34:32;;;;;;;18.80;15.00;;;;;;;;;;4918876;29;20518;-75
2022/03/23 12:37:07;;;;;;;17.50;15.70;;;;;;;;;;4919456;29;20522;-78
2022/03/23 12:39:36;;;;;;;21.67;15.77;;;;;;;;;;4919634;29;20411;-76
2022/03/23 12:42:11;;;;;;;20.67;15.93;;;;;;;;;;4919108;29;20837;-78
2022/03/23 12:44:38;;;;;;;21.53;15.50;;;;;;;;;;4919196;29;20462;-75
2022/03/23 12:47:15;;;;;;;22.53;15.20;;;;;;;;;;4934305;29;20510;-77
2022/03/23 12:58:04;;;;;;;20.40;15.37;;;;;;;;;;4919469;29;20407;-76
2022/03/23 13:00:32;;;;;;;20.53;16.83;;;;;;;;;;4919071;29;20461;-78
2022/03/23 13:03:06;;;;;;;21.07;17.20;;;;;;;;;;4919053;29;20438;-77
2022/03/23 13:05:37;;;;;;;22.13;15.67;;;;;;;;;;4919165;29;20613;-77
2022/03/23 13:08:22;;;;;;;18.00;14.23;;;;;;;;;;4919154;29;20411;-76
2022/03/23 13:11:01;;;;;;;19.97;17.27;;;;;;;;;;4918407;29;20437;-77
2022/03/23 13:13:28;;;;;;;17.67;14.60;;;;;;;;;;4918847;29;20927;-75
2022/03/23 13:15:54;;;;;;;16.80;12.80;;;;;;;;;;4918762;29;20454;-76
2022/03/23 13:18:27;;;;;;;18.53;14.00;;;;;;;;;;4933347;29;20931;-76
2022/03/23 13:20:54;;;;;;;17.17;13.77;;;;;;;;;;4918250;29;20438;-78
2022/03/23 13:23:20;;;;;;;17.90;13.37;;;;;;;;;;4918561;29;20431;-79
2022/03/23 13:25:47;;;;;;;15.83;14.20;;;;;;;;;;4918663;29;20565;-75
2022/03/23 13:28:14;;;;;;;22.20;15.10;;;;;;;;;;4918462;29;20528;-77
2022/03/23 13:30:42;;;;;;;16.60;14.30;;;;;;;;;;4918072;29;20439;-76
2022/03/23 13:33:15;;;;;;;17.03;14.23;;;;;;;;;;4932850;29;20517;-77
2022/03/23 13:35:45;;;;;;;19.30;14.60;;;;;;;;;;4918369;29;20816;-76
2022/03/23 13:38:11;;;;;;;18.10;15.43;;;;;;;;;;4918542;29;20924;-75
2022/03/23 13:43:32;;;;;;;14.33;10.97;;;;;;;;;;4918445;29;20425;-79
2022/03/23 13:45:59;;;;;;;13.83;12.20;;;;;;;;;;4917180;29;20470;-77
2022/03/23 13:48:30;;;;;;;17.30;13.60;;;;;;;;;;4918124;29;20418;-75
2022/03/23 13:50:56;;;;;;;15.47;12.97;;;;;;;;;;4917521;29;20435;-76
2022/03/23 13:53:23;;;;;;;20.53;15.63;;;;;;;;;;4917987;29;20415;-75
2022/03/23 13:55:50;;;;;;;19.20;15.33;;;;;;;;;;4917883;29;20474;-76
2022/03/23 13:58:16;;;;;;;21.10;15.10;;;;;;;;;;4917996;29;20419;-77
2022/03/23 14:00:43;;;;;;;17.47;13.80;;;;;;;;;;4917552;29;20489;-78
2022/03/23 14:03:09;;;;;;;20.20;14.47;;;;;;;;;;4917779;29;20415;-75
2022/03/23 14:05:36;;;;;;;18.80;13.47;;;;;;;;;;4918019;29;20802;-76
2022/03/23 14:08:02;;;;;;;17.80;15.80;;;;;;;;;;4917688;29;20906;-76
2022/03/23 14:10:34;;;;;;;22.17;15.53;;;;;;;;;;4917364;29;20659;-77
2022/03/23 14:13:03;;;;;;;18.07;15.50;;;;;;;;;;4917866;29;20518;-76
2022/03/23 14:15:33;;;;;;;12.83;10.07;;;;;;;;;;4917849;29;20426;-76
2022/03/23 14:17:59;;;;;;;14.60;10.30;;;;;;;;;;4917862;29;20946;-76
2022/03/23 14:20:25;;;;;;;17.20;12.47;;;;;;;;;;4917300;29;20448;-75
2022/03/23 14:22:53;;;;;;;14.33;11.77;;;;;;;;;;4917584;29;20569;-76
2022/03/23 14:25:20;;;;;;;14.77;11.53;;;;;;;;;;4931725;29;20983;-76
2022/03/23 14:27:49;;;;;;;11.83;10.60;;;;;;;;;;4917429;29;20551;-74
2022/03/23 14:30:16;;;;;;;16.73;12.27;;;;;;;;;;4917091;29;20413;-76
2022/03/23 14:32:51;;;;;;;16.40;11.87;;;;;;;;;;4917331;29;20478;-76
2022/03/23 14:35:18;;;;;;;13.43;10.30;;;;;;;;;;4917218;29;20425;-76
2022/03/23 14:37:45;;;;;;;17.17;12.73;;;;;;;;;;4917303;29;20419;-76
2022/03/23 14:40:17;;;;;;;20.27;12.80;;;;;;;;;;4917019;29;20415;-76
2022/03/23 14:42:43;;;;;;;18.40;13.30;;;;;;;;;;4917211;29;20477;-75
2022/03/23 14:45:31;;;;;;;21.10;12.73;;;;;;;;;;4917130;29;20502;-76
2022/03/23 14:47:58;;;;;;;19.77;13.77;;;;;;;;;;4917107;29;20494;-75
2022/03/23 14:50:25;;;;;;;17.60;12.87;;;;;;;;;;4931622;29;20419;-75
2022/03/23 14:52:51;;;;;;;23.50;17.23;;;;;;;;;;4917198;29;20503;-76